sensor_id;sensor_type;location;lat;lon;timestamp;P1;durP1;ratioP1;P2;durP2;ratioP2
63218;SDS011;49320;52.512;13.448;2022-07-03T00:01:57;4.50;;;2.38;;
63218;SDS011;49320;52.512;13.448;2022-07-03T00:04:25;3.30;;;2.65;;
63218;SDS011;49320;52.512;13.448;2022-07-03T00:06:53;3.47;;;2.83;;
63218;SDS011;49320;52.512;13.448;2022-07-03T00:09:20;3.13;;;2.70;;
63218;SDS011;49320;52.512;13.448;2022-07-03T00:11:48;3.05;;;2.70;;
63218;SDS011;49320;52.512;13.448;2022-07-03T00:14:15;3.17;;;2.67;;
63218;SDS011;49320;52.512;13.448;2022-07-03T00:16:43;3.75;;;2.75;;
63218;SDS011;49320;52.512;13.448;2022-07-03T00:19:11;3.88;;;2.75;;
63218;SDS011;49320;52.512;13.448;2022-07-03T00:21:39;3.20;;;2.70;;
63218;SDS011;49320;52.512;13.448;2022-07-03T00:24:23;3.65;;;2.50;;
63218;SDS011;49320;52.512;13.448;2022-07-03T00:27:08;3.30;;;2.70;;
63218;SDS011;49320;52.512;13.448;2022-07-03T00:29:38;3.00;;;2.50;;
63218;SDS011;49320;52.512;13.448;2022-07-03T00:32:09;3.88;;;2.42;;
63218;SDS011;49320;52.512;13.448;2022-07-03T00:34:39;2.90;;;2.60;;
63218;SDS011;49320;52.512;13.448;2022-07-03T00:37:09;3.72;;;2.20;;
63218;SDS011;49320;52.512;13.448;2022-07-03T00:39:37;3.38;;;2.55;;
63218;SDS011;49320;52.512;13.448;2022-07-03T00:42:09;2.53;;;2.33;;
63218;SDS011;49320;52.512;13.448;2022-07-03T00:44:45;3.03;;;2.33;;
63218;SDS011;49320;52.512;13.448;2022-07-03T00:47:21;2.70;;;2.38;;
63218;SDS011;49320;52.512;13.448;2022-07-03T00:49:54;3.15;;;2.50;;
63218;SDS011;49320;52.512;13.448;2022-07-03T00:52:26;3.17;;;2.53;;
63218;SDS011;49320;52.512;13.448;2022-07-03T00:54:57;3.42;;;2.50;;
63218;SDS011;49320;52.512;13.448;2022-07-03T00:57:28;5.45;;;2.80;;
63218;SDS011;49320;52.512;13.448;2022-07-03T00:59:56;5.53;;;2.95;;
63218;SDS011;49320;52.512;13.448;2022-07-03T01:05:11;3.35;;;2.58;;
63218;SDS011;49320;52.512;13.448;2022-07-03T01:16:57;2.85;;;2.40;;
63218;SDS011;49320;52.512;13.448;2022-07-03T01:19:37;3.23;;;2.30;;
63218;SDS011;49320;52.512;13.448;2022-07-03T01:25:23;3.20;;;2.50;;
63218;SDS011;49320;52.512;13.448;2022-07-03T01:28:16;3.15;;;2.50;;
63218;SDS011;49320;52.512;13.448;2022-07-03T01:30:48;4.28;;;2.67;;
63218;SDS011;49320;52.512;13.448;2022-07-03T01:33:18;3.25;;;2.78;;
63218;SDS011;49320;52.512;13.448;2022-07-03T01:38:27;4.22;;;3.10;;
63218;SDS011;49320;52.512;13.448;2022-07-03T01:40:56;3.35;;;2.47;;
63218;SDS011;49320;52.512;13.448;2022-07-03T01:43:30;3.80;;;2.83;;
63218;SDS011;49320;52.512;13.448;2022-07-03T01:45:59;3.00;;;2.67;;
63218;SDS011;49320;52.512;13.448;2022-07-03T01:48:29;4.05;;;2.70;;
63218;SDS011;49320;52.512;13.448;2022-07-03T01:50:59;3.30;;;2.30;;
63218;SDS011;49320;52.512;13.448;2022-07-03T01:53:28;2.75;;;2.05;;
63218;SDS011;49320;52.512;13.448;2022-07-03T01:55:58;3.25;;;2.60;;
63218;SDS011;49320;52.512;13.448;2022-07-03T01:58:26;3.83;;;2.80;;
63218;SDS011;49320;52.512;13.448;2022-07-03T02:01:06;3.85;;;2.28;;
63218;SDS011;49320;52.512;13.448;2022-07-03T02:04:01;3.47;;;2.20;;
63218;SDS011;49320;52.512;13.448;2022-07-03T02:07:04;2.95;;;2.60;;
63218;SDS011;49320;52.512;13.448;2022-07-03T02:09:49;4.45;;;2.88;;
63218;SDS011;49320;52.512;13.448;2022-07-03T02:12:36;5.80;;;2.90;;
63218;SDS011;49320;52.512;13.448;2022-07-03T02:15:18;4.95;;;3.05;;
63218;SDS011;49320;52.512;13.448;2022-07-03T02:17:56;2.70;;;2.30;;
63218;SDS011;49320;52.512;13.448;2022-07-03T02:20:26;3.35;;;2.40;;
63218;SDS011;49320;52.512;13.448;2022-07-03T02:23:02;4.68;;;2.88;;
63218;SDS011;49320;52.512;13.448;2022-07-03T02:25:33;3.10;;;2.55;;
63218;SDS011;49320;52.512;13.448;2022-07-03T02:28:03;4.18;;;2.80;;
63218;SDS011;49320;52.512;13.448;2022-07-03T02:30:51;2.50;;;2.28;;
63218;SDS011;49320;52.512;13.448;2022-07-03T02:33:25;4.28;;;2.67;;
63218;SDS011;49320;52.512;13.448;2022-07-03T02:35:56;2.80;;;2.50;;
63218;SDS011;49320;52.512;13.448;2022-07-03T02:38:24;3.17;;;2.63;;
63218;SDS011;49320;52.512;13.448;2022-07-03T02:43:49;2.72;;;2.53;;
63218;SDS011;49320;52.512;13.448;2022-07-03T03:01:20;3.25;;;2.38;;
63218;SDS011;49320;52.512;13.448;2022-07-03T03:06:41;2.85;;;2.53;;
63218;SDS011;49320;52.512;13.448;2022-07-03T03:09:20;3.33;;;2.67;;
63218;SDS011;49320;52.512;13.448;2022-07-03T03:11:55;4.00;;;2.65;;
63218;SDS011;49320;52.512;13.448;2022-07-03T03:14:30;3.38;;;2.53;;
63218;SDS011;49320;52.512;13.448;2022-07-03T03:17:13;2.70;;;2.22;;
63218;SDS011;49320;52.512;13.448;2022-07-03T03:19:52;3.75;;;2.40;;
63218;SDS011;49320;52.512;13.448;2022-07-03T03:22:33;3.90;;;2.53;;
63218;SDS011;49320;52.512;13.448;2022-07-03T03:25:25;3.08;;;2.78;;
63218;SDS011;49320;52.512;13.448;2022-07-03T03:27:52;3.33;;;2.78;;
63218;SDS011;49320;52.512;13.448;2022-07-03T03:30:19;3.92;;;2.60;;
63218;SDS011;49320;52.512;13.448;2022-07-03T03:32:46;4.45;;;2.83;;
63218;SDS011;49320;52.512;13.448;2022-07-03T03:35:13;2.53;;;2.33;;
63218;SDS011;49320;52.512;13.448;2022-07-03T03:37:41;2.88;;;2.47;;
63218;SDS011;49320;52.512;13.448;2022-07-03T03:40:10;2.90;;;2.40;;
63218;SDS011;49320;52.512;13.448;2022-07-03T03:42:38;2.65;;;2.35;;
63218;SDS011;49320;52.512;13.448;2022-07-03T03:45:05;2.92;;;2.33;;
63218;SDS011;49320;52.512;13.448;2022-07-03T03:47:33;3.08;;;2.78;;
63218;SDS011;49320;52.512;13.448;2022-07-03T03:50:01;3.30;;;2.47;;
63218;SDS011;49320;52.512;13.448;2022-07-03T03:52:29;3.28;;;2.38;;
63218;SDS011;49320;52.512;13.448;2022-07-03T03:54:56;3.33;;;2.70;;
63218;SDS011;49320;52.512;13.448;2022-07-03T03:57:23;5.95;;;2.42;;
63218;SDS011;49320;52.512;13.448;2022-07-03T03:59:51;2.50;;;2.28;;
63218;SDS011;49320;52.512;13.448;2022-07-03T04:02:20;3.10;;;2.45;;
63218;SDS011;49320;52.512;13.448;2022-07-03T04:04:47;3.67;;;2.30;;
63218;SDS011;49320;52.512;13.448;2022-07-03T04:07:14;2.90;;;2.53;;
63218;SDS011;49320;52.512;13.448;2022-07-03T04:09:41;3.30;;;2.63;;
63218;SDS011;49320;52.512;13.448;2022-07-03T04:12:08;2.80;;;2.35;;
63218;SDS011;49320;52.512;13.448;2022-07-03T04:14:36;2.65;;;2.22;;
63218;SDS011;49320;52.512;13.448;2022-07-03T04:17:03;4.65;;;2.53;;
63218;SDS011;49320;52.512;13.448;2022-07-03T04:19:30;2.85;;;2.55;;
63218;SDS011;49320;52.512;13.448;2022-07-03T04:21:57;2.50;;;2.30;;
63218;SDS011;49320;52.512;13.448;2022-07-03T04:24:24;2.92;;;2.60;;
63218;SDS011;49320;52.512;13.448;2022-07-03T04:26:51;2.60;;;2.40;;
63218;SDS011;49320;52.512;13.448;2022-07-03T04:29:18;3.10;;;2.58;;
63218;SDS011;49320;52.512;13.448;2022-07-03T04:31:45;3.17;;;2.25;;
63218;SDS011;49320;52.512;13.448;2022-07-03T04:34:12;2.60;;;2.40;;
63218;SDS011;49320;52.512;13.448;2022-07-03T04:36:39;3.25;;;2.50;;
63218;SDS011;49320;52.512;13.448;2022-07-03T04:39:06;2.83;;;2.50;;
63218;SDS011;49320;52.512;13.448;2022-07-03T04:41:32;3.65;;;2.63;;
63218;SDS011;49320;52.512;13.448;2022-07-03T04:43:59;2.88;;;2.45;;
63218;SDS011;49320;52.512;13.448;2022-07-03T04:46:26;2.60;;;2.40;;
63218;SDS011;49320;52.512;13.448;2022-07-03T04:48:53;2.50;;;2.22;;
63218;SDS011;49320;52.512;13.448;2022-07-03T04:51:20;3.53;;;2.50;;
63218;SDS011;49320;52.512;13.448;2022-07-03T04:53:47;2.80;;;2.35;;
63218;SDS011;49320;52.512;13.448;2022-07-03T04:56:14;2.65;;;2.45;;
63218;SDS011;49320;52.512;13.448;2022-07-03T04:58:41;3.70;;;2.70;;
63218;SDS011;49320;52.512;13.448;2022-07-03T05:01:07;3.10;;;2.58;;
63218;SDS011;49320;52.512;13.448;2022-07-03T05:03:34;4.57;;;2.40;;
63218;SDS011;49320;52.512;13.448;2022-07-03T05:06:01;3.72;;;2.80;;
63218;SDS011;49320;52.512;13.448;2022-07-03T05:08:28;2.67;;;2.45;;
63218;SDS011;49320;52.512;13.448;2022-07-03T05:10:55;3.40;;;2.25;;
63218;SDS011;49320;52.512;13.448;2022-07-03T05:13:22;2.50;;;2.30;;
63218;SDS011;49320;52.512;13.448;2022-07-03T05:15:49;2.92;;;2.17;;
63218;SDS011;49320;52.512;13.448;2022-07-03T05:18:16;2.55;;;2.08;;
63218;SDS011;49320;52.512;13.448;2022-07-03T05:20:47;4.05;;;2.30;;
63218;SDS011;49320;52.512;13.448;2022-07-03T05:23:14;3.05;;;2.75;;
63218;SDS011;49320;52.512;13.448;2022-07-03T05:25:41;2.75;;;2.15;;
63218;SDS011;49320;52.512;13.448;2022-07-03T05:28:08;3.10;;;2.50;;
63218;SDS011;49320;52.512;13.448;2022-07-03T05:30:35;2.47;;;2.20;;
63218;SDS011;49320;52.512;13.448;2022-07-03T05:33:02;2.85;;;2.28;;
63218;SDS011;49320;52.512;13.448;2022-07-03T05:35:29;3.85;;;2.13;;
63218;SDS011;49320;52.512;13.448;2022-07-03T05:37:56;3.08;;;2.40;;
63218;SDS011;49320;52.512;13.448;2022-07-03T05:40:23;2.33;;;2.10;;
63218;SDS011;49320;52.512;13.448;2022-07-03T05:42:50;8.50;;;2.65;;
63218;SDS011;49320;52.512;13.448;2022-07-03T05:45:18;2.50;;;2.17;;
63218;SDS011;49320;52.512;13.448;2022-07-03T05:47:45;4.03;;;2.00;;
63218;SDS011;49320;52.512;13.448;2022-07-03T05:50:12;2.70;;;2.30;;
63218;SDS011;49320;52.512;13.448;2022-07-03T05:52:39;2.67;;;2.40;;
63218;SDS011;49320;52.512;13.448;2022-07-03T05:55:06;2.85;;;2.25;;
63218;SDS011;49320;52.512;13.448;2022-07-03T05:57:33;2.65;;;1.98;;
63218;SDS011;49320;52.512;13.448;2022-07-03T06:00:00;2.40;;;2.20;;
63218;SDS011;49320;52.512;13.448;2022-07-03T06:02:29;2.53;;;2.10;;
63218;SDS011;49320;52.512;13.448;2022-07-03T06:04:55;2.13;;;1.92;;
63218;SDS011;49320;52.512;13.448;2022-07-03T06:07:22;1.70;;;1.60;;
63218;SDS011;49320;52.512;13.448;2022-07-03T06:09:49;2.65;;;1.80;;
63218;SDS011;49320;52.512;13.448;2022-07-03T06:12:16;2.47;;;2.10;;
63218;SDS011;49320;52.512;13.448;2022-07-03T06:14:43;2.60;;;2.22;;
63218;SDS011;49320;52.512;13.448;2022-07-03T06:17:10;2.10;;;1.90;;
63218;SDS011;49320;52.512;13.448;2022-07-03T06:19:37;1.80;;;1.70;;
63218;SDS011;49320;52.512;13.448;2022-07-03T06:22:03;1.70;;;1.60;;
63218;SDS011;49320;52.512;13.448;2022-07-03T06:24:31;1.85;;;1.60;;
63218;SDS011;49320;52.512;13.448;2022-07-03T06:26:57;2.63;;;2.00;;
63218;SDS011;49320;52.512;13.448;2022-07-03T06:29:24;2.50;;;1.85;;
63218;SDS011;49320;52.512;13.448;2022-07-03T06:31:51;1.73;;;1.60;;
63218;SDS011;49320;52.512;13.448;2022-07-03T06:34:18;3.92;;;1.80;;
63218;SDS011;49320;52.512;13.448;2022-07-03T06:36:45;2.50;;;2.17;;
63218;SDS011;49320;52.512;13.448;2022-07-03T06:39:12;5.80;;;2.08;;
63218;SDS011;49320;52.512;13.448;2022-07-03T06:41:39;2.28;;;2.08;;
63218;SDS011;49320;52.512;13.448;2022-07-03T06:44:06;2.15;;;1.95;;
63218;SDS011;49320;52.512;13.448;2022-07-03T06:46:32;2.10;;;1.90;;
63218;SDS011;49320;52.512;13.448;2022-07-03T06:48:59;3.40;;;1.88;;
63218;SDS011;49320;52.512;13.448;2022-07-03T06:51:26;2.30;;;2.10;;
63218;SDS011;49320;52.512;13.448;2022-07-03T06:53:53;2.20;;;2.00;;
63218;SDS011;49320;52.512;13.448;2022-07-03T06:56:20;2.35;;;1.95;;
63218;SDS011;49320;52.512;13.448;2022-07-03T06:58:49;2.17;;;1.77;;
63218;SDS011;49320;52.512;13.448;2022-07-03T07:01:16;1.80;;;1.70;;
63218;SDS011;49320;52.512;13.448;2022-07-03T07:03:43;2.72;;;2.08;;
63218;SDS011;49320;52.512;13.448;2022-07-03T07:06:10;1.90;;;1.67;;
63218;SDS011;49320;52.512;13.448;2022-07-03T07:08:37;2.50;;;2.10;;
63218;SDS011;49320;52.512;13.448;2022-07-03T07:11:04;2.90;;;1.55;;
63218;SDS011;49320;52.512;13.448;2022-07-03T07:13:30;1.83;;;1.70;;
63218;SDS011;49320;52.512;13.448;2022-07-03T07:15:57;3.10;;;1.70;;
63218;SDS011;49320;52.512;13.448;2022-07-03T07:18:24;2.00;;;1.75;;
63218;SDS011;49320;52.512;13.448;2022-07-03T07:20:51;2.80;;;1.85;;
63218;SDS011;49320;52.512;13.448;2022-07-03T07:23:18;2.20;;;1.50;;
63218;SDS011;49320;52.512;13.448;2022-07-03T07:25:45;2.25;;;1.77;;
63218;SDS011;49320;52.512;13.448;2022-07-03T07:28:12;2.75;;;1.45;;
63218;SDS011;49320;52.512;13.448;2022-07-03T07:30:39;1.63;;;1.50;;
63218;SDS011;49320;52.512;13.448;2022-07-03T07:33:08;2.35;;;1.60;;
63218;SDS011;49320;52.512;13.448;2022-07-03T07:35:36;2.17;;;1.63;;
63218;SDS011;49320;52.512;13.448;2022-07-03T07:38:03;2.03;;;1.80;;
63218;SDS011;49320;52.512;13.448;2022-07-03T07:40:34;2.42;;;1.90;;
63218;SDS011;49320;52.512;13.448;2022-07-03T07:43:02;2.20;;;2.00;;
63218;SDS011;49320;52.512;13.448;2022-07-03T07:45:29;2.08;;;1.58;;
63218;SDS011;49320;52.512;13.448;2022-07-03T07:47:56;2.17;;;1.75;;
63218;SDS011;49320;52.512;13.448;2022-07-03T07:50:23;2.10;;;1.90;;
63218;SDS011;49320;52.512;13.448;2022-07-03T07:52:50;1.40;;;1.30;;
63218;SDS011;49320;52.512;13.448;2022-07-03T07:55:17;2.50;;;1.90;;
63218;SDS011;49320;52.512;13.448;2022-07-03T07:57:44;1.90;;;1.70;;
63218;SDS011;49320;52.512;13.448;2022-07-03T08:00:13;1.92;;;1.80;;
63218;SDS011;49320;52.512;13.448;2022-07-03T08:02:43;2.10;;;1.70;;
63218;SDS011;49320;52.512;13.448;2022-07-03T08:05:30;2.42;;;1.75;;
63218;SDS011;49320;52.512;13.448;2022-07-03T08:08:13;1.98;;;1.77;;
63218;SDS011;49320;52.512;13.448;2022-07-03T08:15:44;1.98;;;1.67;;
63218;SDS011;49320;52.512;13.448;2022-07-03T08:18:13;2.10;;;1.70;;
63218;SDS011;49320;52.512;13.448;2022-07-03T08:20:40;1.83;;;1.38;;
63218;SDS011;49320;52.512;13.448;2022-07-03T08:23:07;4.28;;;1.70;;
63218;SDS011;49320;52.512;13.448;2022-07-03T08:25:34;1.85;;;1.65;;
63218;SDS011;49320;52.512;13.448;2022-07-03T08:28:01;2.60;;;1.58;;
63218;SDS011;49320;52.512;13.448;2022-07-03T08:30:28;2.28;;;1.70;;
63218;SDS011;49320;52.512;13.448;2022-07-03T08:32:56;1.70;;;1.50;;
63218;SDS011;49320;52.512;13.448;2022-07-03T08:35:24;1.98;;;1.77;;
63218;SDS011;49320;52.512;13.448;2022-07-03T08:37:52;3.63;;;1.73;;
63218;SDS011;49320;52.512;13.448;2022-07-03T08:40:20;1.83;;;1.58;;
63218;SDS011;49320;52.512;13.448;2022-07-03T08:42:49;2.80;;;1.73;;
63218;SDS011;49320;52.512;13.448;2022-07-03T08:45:21;1.67;;;1.50;;
63218;SDS011;49320;52.512;13.448;2022-07-03T08:47:51;1.65;;;1.55;;
63218;SDS011;49320;52.512;13.448;2022-07-03T08:50:23;1.80;;;1.70;;
63218;SDS011;49320;52.512;13.448;2022-07-03T08:52:51;2.15;;;1.70;;
63218;SDS011;49320;52.512;13.448;2022-07-03T08:55:18;1.80;;;1.58;;
63218;SDS011;49320;52.512;13.448;2022-07-03T08:57:46;2.70;;;1.73;;
63218;SDS011;49320;52.512;13.448;2022-07-03T09:00:16;1.80;;;1.70;;
63218;SDS011;49320;52.512;13.448;2022-07-03T09:02:46;1.80;;;1.70;;
63218;SDS011;49320;52.512;13.448;2022-07-03T09:05:16;1.67;;;1.58;;
63218;SDS011;49320;52.512;13.448;2022-07-03T09:07:44;1.63;;;1.45;;
63218;SDS011;49320;52.512;13.448;2022-07-03T09:10:16;2.47;;;1.60;;
63218;SDS011;49320;52.512;13.448;2022-07-03T09:12:45;1.65;;;1.50;;
63218;SDS011;49320;52.512;13.448;2022-07-03T09:15:14;1.88;;;1.55;;
63218;SDS011;49320;52.512;13.448;2022-07-03T09:20:28;1.50;;;1.40;;
63218;SDS011;49320;52.512;13.448;2022-07-03T09:23:20;1.60;;;1.50;;
63218;SDS011;49320;52.512;13.448;2022-07-03T09:25:53;1.80;;;1.63;;
63218;SDS011;49320;52.512;13.448;2022-07-03T09:31:25;2.28;;;1.73;;
63218;SDS011;49320;52.512;13.448;2022-07-03T09:34:00;1.92;;;1.52;;
63218;SDS011;49320;52.512;13.448;2022-07-03T09:39:17;1.65;;;1.38;;
63218;SDS011;49320;52.512;13.448;2022-07-03T09:44:39;1.30;;;1.20;;
63218;SDS011;49320;52.512;13.448;2022-07-03T09:47:18;1.85;;;1.52;;
63218;SDS011;49320;52.512;13.448;2022-07-03T09:52:37;3.38;;;2.40;;
63218;SDS011;49320;52.512;13.448;2022-07-03T09:57:46;1.80;;;1.38;;
63218;SDS011;49320;52.512;13.448;2022-07-03T10:00:22;1.63;;;1.45;;
63218;SDS011;49320;52.512;13.448;2022-07-03T10:02:59;2.20;;;1.40;;
63218;SDS011;49320;52.512;13.448;2022-07-03T10:08:02;3.08;;;1.35;;
63218;SDS011;49320;52.512;13.448;2022-07-03T10:10:37;1.90;;;1.67;;
63218;SDS011;49320;52.512;13.448;2022-07-03T10:13:13;1.73;;;1.42;;
63218;SDS011;49320;52.512;13.448;2022-07-03T10:15:41;1.38;;;1.27;;
63218;SDS011;49320;52.512;13.448;2022-07-03T10:18:13;1.40;;;1.30;;
63218;SDS011;49320;52.512;13.448;2022-07-03T10:20:45;1.48;;;1.38;;
63218;SDS011;49320;52.512;13.448;2022-07-03T10:23:16;1.70;;;1.38;;
63218;SDS011;49320;52.512;13.448;2022-07-03T10:25:47;1.60;;;1.50;;
63218;SDS011;49320;52.512;13.448;2022-07-03T10:28:15;2.80;;;1.50;;
63218;SDS011;49320;52.512;13.448;2022-07-03T10:30:44;1.50;;;1.40;;
63218;SDS011;49320;52.512;13.448;2022-07-03T10:33:13;1.67;;;1.52;;
63218;SDS011;49320;52.512;13.448;2022-07-03T10:35:42;2.20;;;1.65;;
63218;SDS011;49320;52.512;13.448;2022-07-03T10:38:16;1.65;;;1.23;;
63218;SDS011;49320;52.512;13.448;2022-07-03T10:41:07;1.95;;;1.58;;
63218;SDS011;49320;52.512;13.448;2022-07-03T10:44:04;1.90;;;1.65;;
63218;SDS011;49320;52.512;13.448;2022-07-03T10:46:51;1.35;;;1.25;;
63218;SDS011;49320;52.512;13.448;2022-07-03T10:49:24;1.55;;;1.20;;
63218;SDS011;49320;52.512;13.448;2022-07-03T10:51:52;1.50;;;1.40;;
63218;SDS011;49320;52.512;13.448;2022-07-03T10:54:26;2.75;;;1.80;;
63218;SDS011;49320;52.512;13.448;2022-07-03T11:02:45;2.35;;;1.70;;
63218;SDS011;49320;52.512;13.448;2022-07-03T11:07:28;2.67;;;1.58;;
63218;SDS011;49320;52.512;13.448;2022-07-03T11:15:53;1.75;;;1.60;;
63218;SDS011;49320;52.512;13.448;2022-07-03T11:23:54;2.97;;;2.25;;
63218;SDS011;49320;52.512;13.448;2022-07-03T11:26:47;1.75;;;1.40;;
63218;SDS011;49320;52.512;13.448;2022-07-03T11:29:50;1.30;;;1.20;;
63218;SDS011;49320;52.512;13.448;2022-07-03T11:32:25;1.58;;;1.48;;
63218;SDS011;49320;52.512;13.448;2022-07-03T11:38:25;1.50;;;1.40;;
63218;SDS011;49320;52.512;13.448;2022-07-03T11:40:55;4.47;;;1.65;;
63218;SDS011;49320;52.512;13.448;2022-07-03T11:43:24;1.55;;;1.45;;
63218;SDS011;49320;52.512;13.448;2022-07-03T11:45:52;1.50;;;1.40;;
63218;SDS011;49320;52.512;13.448;2022-07-03T11:48:22;2.00;;;1.40;;
63218;SDS011;49320;52.512;13.448;2022-07-03T11:53:28;3.63;;;1.92;;
63218;SDS011;49320;52.512;13.448;2022-07-03T11:55:59;1.67;;;1.33;;
63218;SDS011;49320;52.512;13.448;2022-07-03T11:58:41;1.90;;;1.70;;
63218;SDS011;49320;52.512;13.448;2022-07-03T12:01:09;1.73;;;1.63;;
63218;SDS011;49320;52.512;13.448;2022-07-03T12:04:39;1.60;;;1.50;;
63218;SDS011;49320;52.512;13.448;2022-07-03T12:06:49;1.63;;;1.42;;
63218;SDS011;49320;52.512;13.448;2022-07-03T12:17:17;2.78;;;1.75;;
63218;SDS011;49320;52.512;13.448;2022-07-03T12:19:48;1.60;;;1.42;;
63218;SDS011;49320;52.512;13.448;2022-07-03T12:22:31;2.55;;;1.20;;
63218;SDS011;49320;52.512;13.448;2022-07-03T12:25:06;3.03;;;1.83;;
63218;SDS011;49320;52.512;13.448;2022-07-03T12:27:39;2.17;;;1.60;;
63218;SDS011;49320;52.512;13.448;2022-07-03T12:30:09;1.85;;;1.48;;
63218;SDS011;49320;52.512;13.448;2022-07-03T12:32:53;1.67;;;1.55;;
63218;SDS011;49320;52.512;13.448;2022-07-03T12:35:23;2.53;;;1.40;;
63218;SDS011;49320;52.512;13.448;2022-07-03T12:37:51;1.90;;;1.50;;
63218;SDS011;49320;52.512;13.448;2022-07-03T12:40:18;3.42;;;1.52;;
63218;SDS011;49320;52.512;13.448;2022-07-03T12:45:24;1.67;;;1.38;;
63218;SDS011;49320;52.512;13.448;2022-07-03T12:48:00;1.50;;;1.40;;
63218;SDS011;49320;52.512;13.448;2022-07-03T12:50:48;1.30;;;1.20;;
63218;SDS011;49320;52.512;13.448;2022-07-03T12:53:27;1.50;;;1.40;;
63218;SDS011;49320;52.512;13.448;2022-07-03T12:56:06;3.53;;;3.20;;
63218;SDS011;49320;52.512;13.448;2022-07-03T12:58:36;2.50;;;2.30;;
63218;SDS011;49320;52.512;13.448;2022-07-03T13:01:30;1.80;;;1.70;;
63218;SDS011;49320;52.512;13.448;2022-07-03T13:04:03;1.67;;;1.58;;
63218;SDS011;49320;52.512;13.448;2022-07-03T13:06:34;1.67;;;1.58;;
63218;SDS011;49320;52.512;13.448;2022-07-03T13:09:02;1.65;;;1.55;;
63218;SDS011;49320;52.512;13.448;2022-07-03T13:11:49;2.35;;;1.58;;
63218;SDS011;49320;52.512;13.448;2022-07-03T13:14:17;2.67;;;1.73;;
63218;SDS011;49320;52.512;13.448;2022-07-03T13:16:48;2.88;;;1.50;;
63218;SDS011;49320;52.512;13.448;2022-07-03T13:19:25;1.45;;;1.35;;
63218;SDS011;49320;52.512;13.448;2022-07-03T13:21:55;5.68;;;1.60;;
63218;SDS011;49320;52.512;13.448;2022-07-03T13:24:24;1.40;;;1.30;;
63218;SDS011;49320;52.512;13.448;2022-07-03T13:26:52;1.70;;;1.60;;
63218;SDS011;49320;52.512;13.448;2022-07-03T13:29:21;1.58;;;1.48;;
63218;SDS011;49320;52.512;13.448;2022-07-03T13:31:51;1.23;;;1.13;;
63218;SDS011;49320;52.512;13.448;2022-07-03T13:34:18;3.03;;;1.40;;
63218;SDS011;49320;52.512;13.448;2022-07-03T13:36:45;1.65;;;1.45;;
63218;SDS011;49320;52.512;13.448;2022-07-03T13:39:12;2.35;;;1.95;;
63218;SDS011;49320;52.512;13.448;2022-07-03T13:41:39;5.95;;;2.08;;
63218;SDS011;49320;52.512;13.448;2022-07-03T13:44:06;1.77;;;1.60;;
63218;SDS011;49320;52.512;13.448;2022-07-03T13:46:32;1.88;;;1.77;;
63218;SDS011;49320;52.512;13.448;2022-07-03T13:48:59;1.50;;;1.40;;
63218;SDS011;49320;52.512;13.448;2022-07-03T13:51:26;2.33;;;1.40;;
63218;SDS011;49320;52.512;13.448;2022-07-03T13:53:53;1.30;;;1.20;;
63218;SDS011;49320;52.512;13.448;2022-07-03T13:56:20;1.80;;;1.60;;
63218;SDS011;49320;52.512;13.448;2022-07-03T13:58:47;1.58;;;1.48;;
63218;SDS011;49320;52.512;13.448;2022-07-03T14:01:18;3.17;;;1.48;;
63218;SDS011;49320;52.512;13.448;2022-07-03T14:03:46;1.80;;;1.48;;
63218;SDS011;49320;52.512;13.448;2022-07-03T14:06:13;3.08;;;2.78;;
63218;SDS011;49320;52.512;13.448;2022-07-03T14:08:40;2.92;;;2.45;;
63218;SDS011;49320;52.512;13.448;2022-07-03T14:11:07;3.25;;;1.80;;
63218;SDS011;49320;52.512;13.448;2022-07-03T14:13:33;1.75;;;1.52;;
63218;SDS011;49320;52.512;13.448;2022-07-03T14:16:00;1.60;;;1.50;;
63218;SDS011;49320;52.512;13.448;2022-07-03T14:18:27;3.15;;;1.90;;
63218;SDS011;49320;52.512;13.448;2022-07-03T14:20:54;2.75;;;1.70;;
63218;SDS011;49320;52.512;13.448;2022-07-03T14:23:21;1.85;;;1.75;;
63218;SDS011;49320;52.512;13.448;2022-07-03T14:25:48;1.30;;;1.20;;
63218;SDS011;49320;52.512;13.448;2022-07-03T14:28:15;1.48;;;1.30;;
63218;SDS011;49320;52.512;13.448;2022-07-03T14:31:00;2.15;;;1.27;;
63218;SDS011;49320;52.512;13.448;2022-07-03T14:33:46;1.23;;;1.13;;
63218;SDS011;49320;52.512;13.448;2022-07-03T14:36:13;1.42;;;1.33;;
63218;SDS011;49320;52.512;13.448;2022-07-03T14:39:00;1.23;;;1.13;;
63218;SDS011;49320;52.512;13.448;2022-07-03T14:41:26;1.30;;;1.10;;
63218;SDS011;49320;52.512;13.448;2022-07-03T14:43:53;1.52;;;1.42;;
63218;SDS011;49320;52.512;13.448;2022-07-03T14:46:20;1.50;;;1.40;;
63218;SDS011;49320;52.512;13.448;2022-07-03T14:48:47;1.27;;;1.20;;
63218;SDS011;49320;52.512;13.448;2022-07-03T14:51:14;1.40;;;1.30;;
63218;SDS011;49320;52.512;13.448;2022-07-03T14:53:41;1.60;;;1.50;;
63218;SDS011;49320;52.512;13.448;2022-07-03T14:56:10;1.77;;;1.50;;
63218;SDS011;49320;52.512;13.448;2022-07-03T14:58:44;1.83;;;1.73;;
63218;SDS011;49320;52.512;13.448;2022-07-03T15:01:16;2.60;;;1.90;;
63218;SDS011;49320;52.512;13.448;2022-07-03T15:03:59;2.10;;;1.88;;
63218;SDS011;49320;52.512;13.448;2022-07-03T15:06:28;1.63;;;1.50;;
63218;SDS011;49320;52.512;13.448;2022-07-03T15:08:58;1.50;;;1.30;;
63218;SDS011;49320;52.512;13.448;2022-07-03T15:11:36;1.27;;;1.17;;
63218;SDS011;49320;52.512;13.448;2022-07-03T15:14:38;1.77;;;1.30;;
63218;SDS011;49320;52.512;13.448;2022-07-03T15:19:39;1.15;;;1.10;;
63218;SDS011;49320;52.512;13.448;2022-07-03T15:22:14;1.40;;;1.30;;
63218;SDS011;49320;52.512;13.448;2022-07-03T15:24:42;2.42;;;1.60;;
63218;SDS011;49320;52.512;13.448;2022-07-03T15:27:15;2.15;;;1.75;;
63218;SDS011;49320;52.512;13.448;2022-07-03T15:29:47;3.13;;;1.63;;
63218;SDS011;49320;52.512;13.448;2022-07-03T15:32:16;1.65;;;1.30;;
63218;SDS011;49320;52.512;13.448;2022-07-03T15:34:44;2.33;;;1.48;;
63218;SDS011;49320;52.512;13.448;2022-07-03T15:39:54;1.45;;;1.35;;
63218;SDS011;49320;52.512;13.448;2022-07-03T15:42:35;2.20;;;1.50;;
63218;SDS011;49320;52.512;13.448;2022-07-03T15:48:14;2.40;;;1.15;;
63218;SDS011;49320;52.512;13.448;2022-07-03T15:51:21;2.75;;;1.48;;
63218;SDS011;49320;52.512;13.448;2022-07-03T15:54:00;1.40;;;1.30;;
63218;SDS011;49320;52.512;13.448;2022-07-03T15:56:34;1.35;;;1.25;;
63218;SDS011;49320;52.512;13.448;2022-07-03T15:59:03;1.30;;;1.20;;
63218;SDS011;49320;52.512;13.448;2022-07-03T16:01:39;1.65;;;1.30;;
63218;SDS011;49320;52.512;13.448;2022-07-03T16:04:35;3.97;;;1.50;;
63218;SDS011;49320;52.512;13.448;2022-07-03T16:07:16;1.37;;;1.27;;
63218;SDS011;49320;52.512;13.448;2022-07-03T16:09:44;1.38;;;1.27;;
63218;SDS011;49320;52.512;13.448;2022-07-03T16:12:13;1.27;;;1.17;;
63218;SDS011;49320;52.512;13.448;2022-07-03T16:14:51;2.60;;;1.23;;
63218;SDS011;49320;52.512;13.448;2022-07-03T16:17:19;1.67;;;1.42;;
63218;SDS011;49320;52.512;13.448;2022-07-03T16:19:49;1.45;;;1.20;;
63218;SDS011;49320;52.512;13.448;2022-07-03T16:22:17;1.55;;;1.20;;
63218;SDS011;49320;52.512;13.448;2022-07-03T16:24:45;1.50;;;1.40;;
63218;SDS011;49320;52.512;13.448;2022-07-03T16:27:15;1.38;;;1.25;;
63218;SDS011;49320;52.512;13.448;2022-07-03T16:29:45;2.70;;;1.40;;
63218;SDS011;49320;52.512;13.448;2022-07-03T16:32:15;1.60;;;1.48;;
63218;SDS011;49320;52.512;13.448;2022-07-03T16:34:54;1.88;;;1.40;;
63218;SDS011;49320;52.512;13.448;2022-07-03T16:37:32;1.90;;;1.50;;
63218;SDS011;49320;52.512;13.448;2022-07-03T16:40:09;1.77;;;1.40;;
63218;SDS011;49320;52.512;13.448;2022-07-03T16:42:36;1.50;;;1.40;;
63218;SDS011;49320;52.512;13.448;2022-07-03T16:45:10;1.35;;;1.25;;